sensor_id;sensor_type;location;lat;lon;timestamp;P1;durP1;ratioP1;P2;durP2;ratioP2
22715;SDS011;11525;51.152;4.456;2023-06-14T00:00:58;14.13;;;7.43;;
22715;SDS011;11525;51.152;4.456;2023-06-14T00:03:24;9.07;;;7.50;;
22715;SDS011;11525;51.152;4.456;2023-06-14T00:05:51;12.10;;;8.05;;
22715;SDS011;11525;51.152;4.456;2023-06-14T00:08:19;10.02;;;7.88;;
22715;SDS011;11525;51.152;4.456;2023-06-14T00:10:47;9.43;;;7.57;;
22715;SDS011;11525;51.152;4.456;2023-06-14T00:13:13;12.15;;;8.02;;
22715;SDS011;11525;51.152;4.456;2023-06-14T00:15:39;12.82;;;7.50;;
22715;SDS011;11525;51.152;4.456;2023-06-14T00:18:05;14.48;;;8.20;;
22715;SDS011;11525;51.152;4.456;2023-06-14T00:20:32;11.70;;;7.90;;
22715;SDS011;11525;51.152;4.456;2023-06-14T00:22:59;17.88;;;8.18;;
22715;SDS011;11525;51.152;4.456;2023-06-14T00:25:25;14.68;;;8.38;;
22715;SDS011;11525;51.152;4.456;2023-06-14T00:27:51;8.98;;;7.75;;
22715;SDS011;11525;51.152;4.456;2023-06-14T00:30:21;12.63;;;8.38;;
22715;SDS011;11525;51.152;4.456;2023-06-14T00:32:47;14.98;;;8.23;;
22715;SDS011;11525;51.152;4.456;2023-06-14T00:35:13;10.27;;;9.25;;
22715;SDS011;11525;51.152;4.456;2023-06-14T00:37:45;9.10;;;7.80;;
22715;SDS011;11525;51.152;4.456;2023-06-14T00:40:24;10.93;;;8.57;;
22715;SDS011;11525;51.152;4.456;2023-06-14T00:42:50;11.45;;;8.82;;
22715;SDS011;11525;51.152;4.456;2023-06-14T00:45:16;12.07;;;8.57;;
22715;SDS011;11525;51.152;4.456;2023-06-14T00:47:44;10.50;;;8.45;;
22715;SDS011;11525;51.152;4.456;2023-06-14T00:50:11;13.68;;;8.25;;
22715;SDS011;11525;51.152;4.456;2023-06-14T00:52:38;9.93;;;8.40;;
22715;SDS011;11525;51.152;4.456;2023-06-14T00:55:05;12.80;;;9.07;;
22715;SDS011;11525;51.152;4.456;2023-06-14T00:57:31;15.13;;;8.68;;
22715;SDS011;11525;51.152;4.456;2023-06-14T00:59:57;8.95;;;8.05;;
22715;SDS011;11525;51.152;4.456;2023-06-14T01:05:03;16.25;;;8.30;;
22715;SDS011;11525;51.152;4.456;2023-06-14T01:13:29;10.82;;;7.95;;
22715;SDS011;11525;51.152;4.456;2023-06-14T01:15:59;13.10;;;8.32;;
22715;SDS011;11525;51.152;4.456;2023-06-14T01:18:27;12.13;;;8.55;;
22715;SDS011;11525;51.152;4.456;2023-06-14T01:20:54;10.32;;;8.52;;
22715;SDS011;11525;51.152;4.456;2023-06-14T01:23:22;12.65;;;8.25;;
22715;SDS011;11525;51.152;4.456;2023-06-14T01:25:49;13.93;;;8.68;;
22715;SDS011;11525;51.152;4.456;2023-06-14T01:28:18;13.85;;;8.70;;
22715;SDS011;11525;51.152;4.456;2023-06-14T01:30:46;12.05;;;8.32;;
22715;SDS011;11525;51.152;4.456;2023-06-14T01:33:15;10.65;;;7.40;;
22715;SDS011;11525;51.152;4.456;2023-06-14T01:35:44;9.70;;;8.13;;
22715;SDS011;11525;51.152;4.456;2023-06-14T01:38:15;10.48;;;8.45;;
22715;SDS011;11525;51.152;4.456;2023-06-14T01:40:44;11.77;;;8.23;;
22715;SDS011;11525;51.152;4.456;2023-06-14T01:43:13;9.07;;;8.15;;
22715;SDS011;11525;51.152;4.456;2023-06-14T01:45:41;10.05;;;7.90;;
22715;SDS011;11525;51.152;4.456;2023-06-14T01:48:10;10.85;;;8.00;;
22715;SDS011;11525;51.152;4.456;2023-06-14T01:50:37;11.07;;;7.63;;
22715;SDS011;11525;51.152;4.456;2023-06-14T01:53:05;10.60;;;8.27;;
22715;SDS011;11525;51.152;4.456;2023-06-14T01:55:35;8.45;;;7.55;;
22715;SDS011;11525;51.152;4.456;2023-06-14T01:58:02;11.02;;;7.88;;
22715;SDS011;11525;51.152;4.456;2023-06-14T02:00:29;10.98;;;7.40;;
22715;SDS011;11525;51.152;4.456;2023-06-14T02:02:58;9.25;;;7.65;;
22715;SDS011;11525;51.152;4.456;2023-06-14T02:05:29;8.77;;;7.68;;
22715;SDS011;11525;51.152;4.456;2023-06-14T02:07:55;8.60;;;7.68;;
22715;SDS011;11525;51.152;4.456;2023-06-14T02:10:21;9.50;;;7.57;;
22715;SDS011;11525;51.152;4.456;2023-06-14T02:12:47;9.07;;;7.50;;
22715;SDS011;11525;51.152;4.456;2023-06-14T02:15:13;8.43;;;7.53;;
22715;SDS011;11525;51.152;4.456;2023-06-14T02:17:50;10.98;;;8.10;;
22715;SDS011;11525;51.152;4.456;2023-06-14T02:20:17;9.68;;;7.90;;
22715;SDS011;11525;51.152;4.456;2023-06-14T02:22:43;11.27;;;7.10;;
22715;SDS011;11525;51.152;4.456;2023-06-14T02:25:10;14.35;;;7.78;;
22715;SDS011;11525;51.152;4.456;2023-06-14T02:27:36;11.32;;;7.72;;
22715;SDS011;11525;51.152;4.456;2023-06-14T02:30:02;8.60;;;7.43;;
22715;SDS011;11525;51.152;4.456;2023-06-14T02:32:28;9.57;;;7.43;;
22715;SDS011;11525;51.152;4.456;2023-06-14T02:34:54;10.45;;;7.43;;
22715;SDS011;11525;51.152;4.456;2023-06-14T02:37:20;11.55;;;7.88;;
22715;SDS011;11525;51.152;4.456;2023-06-14T02:39:46;10.90;;;7.18;;
22715;SDS011;11525;51.152;4.456;2023-06-14T02:42:12;10.30;;;7.05;;
22715;SDS011;11525;51.152;4.456;2023-06-14T02:44:38;9.88;;;7.28;;
22715;SDS011;11525;51.152;4.456;2023-06-14T02:47:04;10.57;;;7.15;;
22715;SDS011;11525;51.152;4.456;2023-06-14T02:49:30;7.85;;;6.85;;
22715;SDS011;11525;51.152;4.456;2023-06-14T02:51:56;9.93;;;6.95;;
22715;SDS011;11525;51.152;4.456;2023-06-14T02:54:22;10.50;;;7.15;;
22715;SDS011;11525;51.152;4.456;2023-06-14T02:56:47;10.60;;;7.10;;
22715;SDS011;11525;51.152;4.456;2023-06-14T02:59:13;7.85;;;7.03;;
22715;SDS011;11525;51.152;4.456;2023-06-14T03:01:40;10.23;;;6.70;;
22715;SDS011;11525;51.152;4.456;2023-06-14T03:04:09;9.90;;;6.72;;
22715;SDS011;11525;51.152;4.456;2023-06-14T03:06:35;11.68;;;6.65;;
22715;SDS011;11525;51.152;4.456;2023-06-14T03:09:02;9.88;;;6.55;;
22715;SDS011;11525;51.152;4.456;2023-06-14T03:11:32;10.05;;;6.95;;
22715;SDS011;11525;51.152;4.456;2023-06-14T03:13:58;15.13;;;6.72;;
22715;SDS011;11525;51.152;4.456;2023-06-14T03:16:25;6.85;;;6.15;;
22715;SDS011;11525;51.152;4.456;2023-06-14T03:18:53;10.38;;;7.30;;
22715;SDS011;11525;51.152;4.456;2023-06-14T03:21:19;13.32;;;7.00;;
22715;SDS011;11525;51.152;4.456;2023-06-14T03:23:45;9.93;;;6.88;;
22715;SDS011;11525;51.152;4.456;2023-06-14T03:26:12;8.48;;;6.43;;
22715;SDS011;11525;51.152;4.456;2023-06-14T03:28:39;10.00;;;6.55;;
22715;SDS011;11525;51.152;4.456;2023-06-14T03:31:05;11.18;;;6.55;;
22715;SDS011;11525;51.152;4.456;2023-06-14T03:33:31;13.55;;;6.10;;
22715;SDS011;11525;51.152;4.456;2023-06-14T03:35:57;13.80;;;7.05;;
22715;SDS011;11525;51.152;4.456;2023-06-14T03:38:23;8.98;;;7.00;;
22715;SDS011;11525;51.152;4.456;2023-06-14T03:40:48;7.70;;;6.28;;
22715;SDS011;11525;51.152;4.456;2023-06-14T03:43:14;8.98;;;5.80;;
22715;SDS011;11525;51.152;4.456;2023-06-14T03:45:40;7.95;;;6.22;;
22715;SDS011;11525;51.152;4.456;2023-06-14T03:48:06;10.25;;;6.45;;
22715;SDS011;11525;51.152;4.456;2023-06-14T03:50:34;12.07;;;6.20;;
22715;SDS011;11525;51.152;4.456;2023-06-14T03:53:03;8.38;;;6.82;;
22715;SDS011;11525;51.152;4.456;2023-06-14T03:55:29;11.05;;;6.47;;
22715;SDS011;11525;51.152;4.456;2023-06-14T03:57:56;14.13;;;7.18;;
22715;SDS011;11525;51.152;4.456;2023-06-14T04:00:22;10.43;;;6.50;;
22715;SDS011;11525;51.152;4.456;2023-06-14T04:02:48;9.68;;;6.25;;
22715;SDS011;11525;51.152;4.456;2023-06-14T04:05:14;7.40;;;5.97;;
22715;SDS011;11525;51.152;4.456;2023-06-14T04:07:45;9.88;;;6.47;;
22715;SDS011;11525;51.152;4.456;2023-06-14T04:10:11;12.43;;;6.47;;
22715;SDS011;11525;51.152;4.456;2023-06-14T04:12:38;10.27;;;6.68;;
22715;SDS011;11525;51.152;4.456;2023-06-14T04:15:04;9.82;;;7.00;;
22715;SDS011;11525;51.152;4.456;2023-06-14T04:17:31;12.10;;;6.70;;
22715;SDS011;11525;51.152;4.456;2023-06-14T04:20:02;10.30;;;6.50;;
22715;SDS011;11525;51.152;4.456;2023-06-14T04:22:32;13.85;;;6.47;;
22715;SDS011;11525;51.152;4.456;2023-06-14T04:24:58;9.35;;;6.28;;
22715;SDS011;11525;51.152;4.456;2023-06-14T04:27:25;10.65;;;6.68;;
22715;SDS011;11525;51.152;4.456;2023-06-14T04:29:53;10.10;;;6.50;;
22715;SDS011;11525;51.152;4.456;2023-06-14T04:32:26;8.43;;;6.30;;
22715;SDS011;11525;51.152;4.456;2023-06-14T04:35:01;10.57;;;7.63;;
22715;SDS011;11525;51.152;4.456;2023-06-14T04:37:29;8.63;;;6.30;;
22715;SDS011;11525;51.152;4.456;2023-06-14T04:39:55;13.00;;;6.75;;
22715;SDS011;11525;51.152;4.456;2023-06-14T04:42:22;7.90;;;6.60;;
22715;SDS011;11525;51.152;4.456;2023-06-14T04:44:56;9.57;;;6.38;;
22715;SDS011;11525;51.152;4.456;2023-06-14T04:47:22;11.98;;;6.40;;
22715;SDS011;11525;51.152;4.456;2023-06-14T04:49:54;9.55;;;6.50;;
22715;SDS011;11525;51.152;4.456;2023-06-14T04:52:21;13.90;;;6.90;;
22715;SDS011;11525;51.152;4.456;2023-06-14T04:54:46;10.55;;;6.32;;
22715;SDS011;11525;51.152;4.456;2023-06-14T04:57:12;10.02;;;7.13;;
22715;SDS011;11525;51.152;4.456;2023-06-14T04:59:42;10.70;;;7.13;;
22715;SDS011;11525;51.152;4.456;2023-06-14T05:02:09;11.70;;;6.10;;
22715;SDS011;11525;51.152;4.456;2023-06-14T05:04:36;10.27;;;6.82;;
22715;SDS011;11525;51.152;4.456;2023-06-14T05:07:06;13.32;;;6.68;;
22715;SDS011;11525;51.152;4.456;2023-06-14T05:09:33;12.00;;;7.07;;
22715;SDS011;11525;51.152;4.456;2023-06-14T05:11:59;11.50;;;6.95;;
22715;SDS011;11525;51.152;4.456;2023-06-14T05:14:25;8.13;;;6.47;;
22715;SDS011;11525;51.152;4.456;2023-06-14T05:16:51;15.00;;;6.63;;
22715;SDS011;11525;51.152;4.456;2023-06-14T05:19:18;9.35;;;6.75;;
22715;SDS011;11525;51.152;4.456;2023-06-14T05:21:45;9.07;;;6.40;;
22715;SDS011;11525;51.152;4.456;2023-06-14T05:24:12;15.13;;;6.72;;
22715;SDS011;11525;51.152;4.456;2023-06-14T05:26:45;15.30;;;7.78;;
22715;SDS011;11525;51.152;4.456;2023-06-14T05:29:11;13.18;;;6.68;;
22715;SDS011;11525;51.152;4.456;2023-06-14T05:31:37;11.38;;;7.28;;
22715;SDS011;11525;51.152;4.456;2023-06-14T05:34:04;12.02;;;6.97;;
22715;SDS011;11525;51.152;4.456;2023-06-14T05:36:29;11.30;;;6.72;;
22715;SDS011;11525;51.152;4.456;2023-06-14T05:38:55;13.77;;;6.63;;
22715;SDS011;11525;51.152;4.456;2023-06-14T05:41:24;14.70;;;7.25;;
22715;SDS011;11525;51.152;4.456;2023-06-14T05:43:51;9.90;;;7.40;;
22715;SDS011;11525;51.152;4.456;2023-06-14T05:46:17;9.98;;;6.85;;
22715;SDS011;11525;51.152;4.456;2023-06-14T05:48:47;10.38;;;7.07;;
22715;SDS011;11525;51.152;4.456;2023-06-14T05:51:13;13.18;;;6.57;;
22715;SDS011;11525;51.152;4.456;2023-06-14T05:53:39;9.10;;;7.07;;
22715;SDS011;11525;51.152;4.456;2023-06-14T05:56:05;16.38;;;6.93;;
22715;SDS011;11525;51.152;4.456;2023-06-14T05:58:31;15.85;;;7.50;;
22715;SDS011;11525;51.152;4.456;2023-06-14T06:00:57;10.30;;;6.55;;
22715;SDS011;11525;51.152;4.456;2023-06-14T06:03:23;12.68;;;7.75;;
22715;SDS011;11525;51.152;4.456;2023-06-14T06:05:49;12.35;;;7.38;;
22715;SDS011;11525;51.152;4.456;2023-06-14T06:08:15;11.40;;;6.72;;
22715;SDS011;11525;51.152;4.456;2023-06-14T06:10:41;10.25;;;6.97;;
22715;SDS011;11525;51.152;4.456;2023-06-14T06:13:08;13.13;;;5.75;;
22715;SDS011;11525;51.152;4.456;2023-06-14T06:15:34;12.93;;;7.60;;
22715;SDS011;11525;51.152;4.456;2023-06-14T06:18:00;12.35;;;6.95;;
22715;SDS011;11525;51.152;4.456;2023-06-14T06:20:28;8.52;;;6.90;;
22715;SDS011;11525;51.152;4.456;2023-06-14T06:22:57;10.57;;;5.97;;
22715;SDS011;11525;51.152;4.456;2023-06-14T06:25:26;8.75;;;6.55;;
22715;SDS011;11525;51.152;4.456;2023-06-14T06:27:52;10.43;;;7.00;;
22715;SDS011;11525;51.152;4.456;2023-06-14T06:30:19;10.05;;;6.22;;
22715;SDS011;11525;51.152;4.456;2023-06-14T06:32:45;15.70;;;5.78;;
22715;SDS011;11525;51.152;4.456;2023-06-14T06:35:12;10.15;;;6.50;;
22715;SDS011;11525;51.152;4.456;2023-06-14T06:37:39;11.55;;;5.75;;
22715;SDS011;11525;51.152;4.456;2023-06-14T06:40:08;8.38;;;6.15;;
22715;SDS011;11525;51.152;4.456;2023-06-14T06:42:34;11.35;;;6.32;;
22715;SDS011;11525;51.152;4.456;2023-06-14T06:45:01;8.35;;;5.93;;
22715;SDS011;11525;51.152;4.456;2023-06-14T06:47:27;9.35;;;5.75;;
22715;SDS011;11525;51.152;4.456;2023-06-14T06:49:52;10.73;;;6.25;;
22715;SDS011;11525;51.152;4.456;2023-06-14T06:52:18;8.70;;;5.68;;
22715;SDS011;11525;51.152;4.456;2023-06-14T06:54:44;9.73;;;6.45;;
22715;SDS011;11525;51.152;4.456;2023-06-14T06:57:10;11.25;;;5.35;;
22715;SDS011;11525;51.152;4.456;2023-06-14T06:59:39;8.40;;;5.40;;
22715;SDS011;11525;51.152;4.456;2023-06-14T07:02:07;9.85;;;5.10;;
22715;SDS011;11525;51.152;4.456;2023-06-14T07:04:33;11.68;;;5.40;;
22715;SDS011;11525;51.152;4.456;2023-06-14T07:06:59;14.65;;;6.30;;
22715;SDS011;11525;51.152;4.456;2023-06-14T07:09:25;7.07;;;5.82;;
22715;SDS011;11525;51.152;4.456;2023-06-14T07:11:51;12.88;;;5.78;;
22715;SDS011;11525;51.152;4.456;2023-06-14T07:14:17;13.27;;;5.78;;
22715;SDS011;11525;51.152;4.456;2023-06-14T07:16:43;9.32;;;5.70;;
22715;SDS011;11525;51.152;4.456;2023-06-14T07:19:09;7.35;;;5.10;;
22715;SDS011;11525;51.152;4.456;2023-06-14T07:21:35;8.00;;;5.82;;
22715;SDS011;11525;51.152;4.456;2023-06-14T07:24:04;9.13;;;5.72;;
22715;SDS011;11525;51.152;4.456;2023-06-14T07:26:38;11.65;;;5.55;;
22715;SDS011;11525;51.152;4.456;2023-06-14T07:29:04;8.40;;;5.60;;
22715;SDS011;11525;51.152;4.456;2023-06-14T07:31:30;10.43;;;5.20;;
22715;SDS011;11525;51.152;4.456;2023-06-14T07:33:55;13.07;;;5.68;;
22715;SDS011;11525;51.152;4.456;2023-06-14T07:36:21;16.10;;;5.35;;
22715;SDS011;11525;51.152;4.456;2023-06-14T07:38:47;13.13;;;5.40;;
22715;SDS011;11525;51.152;4.456;2023-06-14T07:41:16;11.82;;;5.32;;
22715;SDS011;11525;51.152;4.456;2023-06-14T07:43:44;10.13;;;5.15;;
22715;SDS011;11525;51.152;4.456;2023-06-14T07:46:10;10.00;;;5.35;;
22715;SDS011;11525;51.152;4.456;2023-06-14T07:48:36;8.07;;;5.22;;
22715;SDS011;11525;51.152;4.456;2023-06-14T07:51:02;7.78;;;5.32;;
22715;SDS011;11525;51.152;4.456;2023-06-14T07:53:28;11.75;;;5.00;;
22715;SDS011;11525;51.152;4.456;2023-06-14T07:55:54;11.70;;;5.55;;
22715;SDS011;11525;51.152;4.456;2023-06-14T07:58:20;10.40;;;5.28;;
22715;SDS011;11525;51.152;4.456;2023-06-14T08:00:45;9.60;;;5.35;;
22715;SDS011;11525;51.152;4.456;2023-06-14T08:03:12;12.50;;;5.25;;
22715;SDS011;11525;51.152;4.456;2023-06-14T08:05:38;11.27;;;5.00;;
22715;SDS011;11525;51.152;4.456;2023-06-14T08:08:03;6.70;;;4.57;;
22715;SDS011;11525;51.152;4.456;2023-06-14T08:10:29;14.45;;;4.68;;
22715;SDS011;11525;51.152;4.456;2023-06-14T08:12:55;10.23;;;4.93;;
22715;SDS011;11525;51.152;4.456;2023-06-14T08:15:21;9.82;;;5.22;;
22715;SDS011;11525;51.152;4.456;2023-06-14T08:17:47;10.43;;;5.35;;
22715;SDS011;11525;51.152;4.456;2023-06-14T08:20:13;10.55;;;4.90;;
22715;SDS011;11525;51.152;4.456;2023-06-14T08:22:41;9.38;;;4.93;;
22715;SDS011;11525;51.152;4.456;2023-06-14T08:25:08;7.70;;;5.28;;
22715;SDS011;11525;51.152;4.456;2023-06-14T08:27:34;8.82;;;5.15;;
22715;SDS011;11525;51.152;4.456;2023-06-14T08:30:00;10.68;;;5.68;;
22715;SDS011;11525;51.152;4.456;2023-06-14T08:32:28;15.25;;;5.80;;
22715;SDS011;11525;51.152;4.456;2023-06-14T08:34:54;13.30;;;6.50;;
22715;SDS011;11525;51.152;4.456;2023-06-14T08:37:19;10.82;;;5.07;;
22715;SDS011;11525;51.152;4.456;2023-06-14T08:39:46;12.10;;;5.82;;
22715;SDS011;11525;51.152;4.456;2023-06-14T08:42:11;6.93;;;5.60;;
22715;SDS011;11525;51.152;4.456;2023-06-14T08:44:39;16.02;;;6.03;;
22715;SDS011;11525;51.152;4.456;2023-06-14T08:47:05;13.95;;;5.55;;
22715;SDS011;11525;51.152;4.456;2023-06-14T08:49:33;12.07;;;6.15;;
22715;SDS011;11525;51.152;4.456;2023-06-14T08:52:03;10.35;;;5.82;;
22715;SDS011;11525;51.152;4.456;2023-06-14T08:54:33;12.57;;;5.85;;
22715;SDS011;11525;51.152;4.456;2023-06-14T08:57:08;6.72;;;4.90;;
22715;SDS011;11525;51.152;4.456;2023-06-14T08:59:42;12.68;;;5.82;;
22715;SDS011;11525;51.152;4.456;2023-06-14T09:02:14;8.98;;;5.95;;
22715;SDS011;11525;51.152;4.456;2023-06-14T09:04:42;10.57;;;5.22;;
22715;SDS011;11525;51.152;4.456;2023-06-14T09:07:09;9.15;;;6.03;;
22715;SDS011;11525;51.152;4.456;2023-06-14T09:09:39;12.02;;;5.80;;
22715;SDS011;11525;51.152;4.456;2023-06-14T09:12:07;12.23;;;6.13;;
22715;SDS011;11525;51.152;4.456;2023-06-14T09:14:36;8.98;;;5.78;;
22715;SDS011;11525;51.152;4.456;2023-06-14T09:17:04;27.20;;;6.15;;
22715;SDS011;11525;51.152;4.456;2023-06-14T09:19:31;11.65;;;5.20;;
22715;SDS011;11525;51.152;4.456;2023-06-14T09:21:56;8.90;;;5.43;;
22715;SDS011;11525;51.152;4.456;2023-06-14T09:24:23;12.10;;;5.63;;
22715;SDS011;11525;51.152;4.456;2023-06-14T09:26:50;7.10;;;5.30;;
22715;SDS011;11525;51.152;4.456;2023-06-14T09:29:17;8.45;;;5.35;;
22715;SDS011;11525;51.152;4.456;2023-06-14T09:31:46;6.78;;;5.00;;
22715;SDS011;11525;51.152;4.456;2023-06-14T09:34:12;9.70;;;5.63;;
22715;SDS011;11525;51.152;4.456;2023-06-14T09:36:38;7.88;;;5.25;;
22715;SDS011;11525;51.152;4.456;2023-06-14T09:39:05;9.57;;;4.70;;
22715;SDS011;11525;51.152;4.456;2023-06-14T09:41:33;8.13;;;4.85;;
22715;SDS011;11525;51.152;4.456;2023-06-14T09:44:00;6.82;;;5.32;;
22715;SDS011;11525;51.152;4.456;2023-06-14T09:46:27;6.65;;;4.75;;
22715;SDS011;11525;51.152;4.456;2023-06-14T09:48:57;7.82;;;5.43;;
22715;SDS011;11525;51.152;4.456;2023-06-14T09:51:24;7.90;;;4.32;;
22715;SDS011;11525;51.152;4.456;2023-06-14T09:53:51;11.75;;;4.63;;
22715;SDS011;11525;51.152;4.456;2023-06-14T09:56:41;5.85;;;4.43;;
22715;SDS011;11525;51.152;4.456;2023-06-14T09:59:09;8.38;;;4.50;;
22715;SDS011;11525;51.152;4.456;2023-06-14T10:01:41;11.80;;;4.50;;
22715;SDS011;11525;51.152;4.456;2023-06-14T10:04:09;8.52;;;4.68;;
22715;SDS011;11525;51.152;4.456;2023-06-14T10:06:36;6.53;;;4.35;;
22715;SDS011;11525;51.152;4.456;2023-06-14T10:09:04;12.48;;;4.97;;
22715;SDS011;11525;51.152;4.456;2023-06-14T10:11:33;13.50;;;5.25;;
22715;SDS011;11525;51.152;4.456;2023-06-14T10:14:00;7.90;;;4.50;;
22715;SDS011;11525;51.152;4.456;2023-06-14T10:24:33;6.72;;;4.07;;
22715;SDS011;11525;51.152;4.456;2023-06-14T10:27:06;9.45;;;3.85;;
22715;SDS011;11525;51.152;4.456;2023-06-14T10:29:50;5.82;;;3.85;;
22715;SDS011;11525;51.152;4.456;2023-06-14T10:32:21;7.10;;;4.00;;
22715;SDS011;11525;51.152;4.456;2023-06-14T10:34:54;7.50;;;4.22;;
22715;SDS011;11525;51.152;4.456;2023-06-14T10:37:21;9.35;;;4.45;;
22715;SDS011;11525;51.152;4.456;2023-06-14T10:39:47;9.65;;;3.92;;
22715;SDS011;11525;51.152;4.456;2023-06-14T10:42:14;9.13;;;3.63;;
22715;SDS011;11525;51.152;4.456;2023-06-14T10:44:44;8.75;;;4.07;;
22715;SDS011;11525;51.152;4.456;2023-06-14T10:47:21;4.13;;;3.45;;
22715;SDS011;11525;51.152;4.456;2023-06-14T10:50:06;9.68;;;3.92;;
22715;SDS011;11525;51.152;4.456;2023-06-14T10:52:34;9.07;;;4.53;;
22715;SDS011;11525;51.152;4.456;2023-06-14T10:55:13;8.55;;;3.67;;
22715;SDS011;11525;51.152;4.456;2023-06-14T10:57:47;9.57;;;3.90;;
22715;SDS011;11525;51.152;4.456;2023-06-14T11:00:17;9.80;;;4.05;;
22715;SDS011;11525;51.152;4.456;2023-06-14T11:03:11;9.63;;;4.00;;
22715;SDS011;11525;51.152;4.456;2023-06-14T11:06:01;7.22;;;3.65;;
22715;SDS011;11525;51.152;4.456;2023-06-14T11:11:24;8.30;;;4.47;;
22715;SDS011;11525;51.152;4.456;2023-06-14T11:13:59;8.27;;;3.75;;
22715;SDS011;11525;51.152;4.456;2023-06-14T11:16:26;7.50;;;4.07;;
22715;SDS011;11525;51.152;4.456;2023-06-14T11:18:53;12.68;;;3.72;;
22715;SDS011;11525;51.152;4.456;2023-06-14T11:21:20;7.63;;;3.92;;
22715;SDS011;11525;51.152;4.456;2023-06-14T11:23:49;7.72;;;3.92;;
22715;SDS011;11525;51.152;4.456;2023-06-14T11:26:23;10.35;;;4.40;;
22715;SDS011;11525;51.152;4.456;2023-06-14T11:29:01;9.30;;;3.83;;
22715;SDS011;11525;51.152;4.456;2023-06-14T11:31:27;7.55;;;4.10;;
22715;SDS011;11525;51.152;4.456;2023-06-14T11:33:54;7.45;;;3.83;;
22715;SDS011;11525;51.152;4.456;2023-06-14T11:36:28;11.82;;;3.90;;
22715;SDS011;11525;51.152;4.456;2023-06-14T11:39:01;9.82;;;4.28;;
22715;SDS011;11525;51.152;4.456;2023-06-14T11:41:37;17.77;;;4.65;;
22715;SDS011;11525;51.152;4.456;2023-06-14T11:44:03;10.23;;;4.20;;
22715;SDS011;11525;51.152;4.456;2023-06-14T11:46:30;7.82;;;3.80;;
22715;SDS011;11525;51.152;4.456;2023-06-14T11:48:56;7.72;;;4.28;;
22715;SDS011;11525;51.152;4.456;2023-06-14T11:51:23;10.30;;;3.83;;
22715;SDS011;11525;51.152;4.456;2023-06-14T11:53:49;9.25;;;3.90;;
22715;SDS011;11525;51.152;4.456;2023-06-14T11:56:15;8.45;;;4.20;;
22715;SDS011;11525;51.152;4.456;2023-06-14T11:58:42;8.82;;;4.22;;
22715;SDS011;11525;51.152;4.456;2023-06-14T12:01:08;10.65;;;3.80;;
22715;SDS011;11525;51.152;4.456;2023-06-14T12:03:34;13.15;;;4.72;;
22715;SDS011;11525;51.152;4.456;2023-06-14T12:06:05;7.70;;;3.63;;
22715;SDS011;11525;51.152;4.456;2023-06-14T12:08:35;7.15;;;3.83;;
22715;SDS011;11525;51.152;4.456;2023-06-14T12:11:11;9.13;;;4.03;;
22715;SDS011;11525;51.152;4.456;2023-06-14T12:13:39;5.05;;;3.65;;
22715;SDS011;11525;51.152;4.456;2023-06-14T12:16:07;9.50;;;4.10;;
22715;SDS011;11525;51.152;4.456;2023-06-14T12:18:34;5.22;;;3.30;;
22715;SDS011;11525;51.152;4.456;2023-06-14T12:21:02;6.30;;;3.53;;
22715;SDS011;11525;51.152;4.456;2023-06-14T12:23:41;7.10;;;3.60;;
22715;SDS011;11525;51.152;4.456;2023-06-14T12:26:17;12.07;;;4.10;;
22715;SDS011;11525;51.152;4.456;2023-06-14T12:28:44;6.20;;;3.38;;
22715;SDS011;11525;51.152;4.456;2023-06-14T12:31:11;4.25;;;2.72;;
22715;SDS011;11525;51.152;4.456;2023-06-14T12:33:41;5.82;;;3.67;;
22715;SDS011;11525;51.152;4.456;2023-06-14T12:36:08;5.13;;;3.17;;
22715;SDS011;11525;51.152;4.456;2023-06-14T12:38:35;13.20;;;3.90;;
22715;SDS011;11525;51.152;4.456;2023-06-14T12:41:01;7.93;;;3.50;;
22715;SDS011;11525;51.152;4.456;2023-06-14T12:43:27;5.13;;;2.72;;
22715;SDS011;11525;51.152;4.456;2023-06-14T12:45:53;8.35;;;3.17;;
22715;SDS011;11525;51.152;4.456;2023-06-14T12:48:19;6.45;;;3.38;;
22715;SDS011;11525;51.152;4.456;2023-06-14T12:50:45;8.18;;;3.10;;
22715;SDS011;11525;51.152;4.456;2023-06-14T12:53:11;3.97;;;3.13;;
22715;SDS011;11525;51.152;4.456;2023-06-14T12:55:37;3.33;;;2.75;;
22715;SDS011;11525;51.152;4.456;2023-06-14T12:58:03;7.30;;;2.90;;
22715;SDS011;11525;51.152;4.456;2023-06-14T13:00:29;9.25;;;2.67;;
22715;SDS011;11525;51.152;4.456;2023-06-14T13:02:55;4.68;;;2.75;;
22715;SDS011;11525;51.152;4.456;2023-06-14T13:05:24;6.82;;;2.22;;
22715;SDS011;11525;51.152;4.456;2023-06-14T13:07:50;3.92;;;2.28;;
22715;SDS011;11525;51.152;4.456;2023-06-14T13:10:16;7.05;;;2.40;;
22715;SDS011;11525;51.152;4.456;2023-06-14T13:12:42;5.05;;;2.08;;
22715;SDS011;11525;51.152;4.456;2023-06-14T13:15:09;4.18;;;2.20;;
22715;SDS011;11525;51.152;4.456;2023-06-14T13:17:35;4.60;;;2.10;;
22715;SDS011;11525;51.152;4.456;2023-06-14T13:20:07;6.10;;;1.92;;
22715;SDS011;11525;51.152;4.456;2023-06-14T13:22:34;3.80;;;1.90;;
22715;SDS011;11525;51.152;4.456;2023-06-14T13:25:00;3.25;;;2.00;;
22715;SDS011;11525;51.152;4.456;2023-06-14T13:27:26;3.25;;;2.00;;
22715;SDS011;11525;51.152;4.456;2023-06-14T13:29:53;3.25;;;1.63;;
22715;SDS011;11525;51.152;4.456;2023-06-14T13:32:20;5.35;;;2.22;;
22715;SDS011;11525;51.152;4.456;2023-06-14T13:34:47;13.57;;;2.28;;
22715;SDS011;11525;51.152;4.456;2023-06-14T13:37:13;5.38;;;2.08;;
22715;SDS011;11525;51.152;4.456;2023-06-14T13:39:39;5.63;;;1.63;;
22715;SDS011;11525;51.152;4.456;2023-06-14T13:42:05;3.83;;;1.67;;
22715;SDS011;11525;51.152;4.456;2023-06-14T13:44:30;2.67;;;1.75;;
22715;SDS011;11525;51.152;4.456;2023-06-14T13:46:56;2.67;;;1.83;;
22715;SDS011;11525;51.152;4.456;2023-06-14T13:49:22;3.22;;;1.90;;
22715;SDS011;11525;51.152;4.456;2023-06-14T13:51:48;4.35;;;1.95;;
22715;SDS011;11525;51.152;4.456;2023-06-14T13:54:19;6.07;;;2.22;;
22715;SDS011;11525;51.152;4.456;2023-06-14T13:56:46;5.57;;;1.83;;
22715;SDS011;11525;51.152;4.456;2023-06-14T13:59:12;4.68;;;1.70;;
22715;SDS011;11525;51.152;4.456;2023-06-14T14:01:38;3.22;;;1.73;;
22715;SDS011;11525;51.152;4.456;2023-06-14T14:04:04;6.80;;;1.95;;
22715;SDS011;11525;51.152;4.456;2023-06-14T14:06:30;6.28;;;1.98;;
22715;SDS011;11525;51.152;4.456;2023-06-14T14:08:56;2.60;;;1.80;;
22715;SDS011;11525;51.152;4.456;2023-06-14T14:11:22;3.80;;;2.35;;
22715;SDS011;11525;51.152;4.456;2023-06-14T14:13:48;2.97;;;1.92;;
22715;SDS011;11525;51.152;4.456;2023-06-14T14:16:14;3.67;;;1.92;;
22715;SDS011;11525;51.152;4.456;2023-06-14T14:18:40;3.97;;;2.00;;
22715;SDS011;11525;51.152;4.456;2023-06-14T14:21:06;3.95;;;1.98;;
22715;SDS011;11525;51.152;4.456;2023-06-14T14:23:32;3.40;;;2.15;;
22715;SDS011;11525;51.152;4.456;2023-06-14T14:25:58;4.55;;;2.28;;
22715;SDS011;11525;51.152;4.456;2023-06-14T14:28:28;4.07;;;1.90;;
22715;SDS011;11525;51.152;4.456;2023-06-14T14:30:54;3.03;;;2.08;;
22715;SDS011;11525;51.152;4.456;2023-06-14T14:33:20;6.28;;;1.90;;
22715;SDS011;11525;51.152;4.456;2023-06-14T14:35:46;6.20;;;1.88;;
22715;SDS011;11525;51.152;4.456;2023-06-14T14:38:12;4.47;;;2.00;;
22715;SDS011;11525;51.152;4.456;2023-06-14T14:40:39;2.22;;;1.90;;
22715;SDS011;11525;51.152;4.456;2023-06-14T14:43:05;5.13;;;2.15;;
22715;SDS011;11525;51.152;4.456;2023-06-14T14:45:34;3.70;;;2.20;;
22715;SDS011;11525;51.152;4.456;2023-06-14T14:48:01;4.15;;;2.30;;
22715;SDS011;11525;51.152;4.456;2023-06-14T14:50:27;5.93;;;2.08;;
22715;SDS011;11525;51.152;4.456;2023-06-14T14:52:53;4.30;;;1.98;;
22715;SDS011;11525;51.152;4.456;2023-06-14T14:55:19;5.70;;;2.15;;
22715;SDS011;11525;51.152;4.456;2023-06-14T14:57:45;3.25;;;2.25;;
22715;SDS011;11525;51.152;4.456;2023-06-14T15:00:11;3.78;;;1.90;;
22715;SDS011;11525;51.152;4.456;2023-06-14T15:02:38;6.32;;;2.35;;